Time;durP1;ratioP1;P1;durP2;ratioP2;P2;SDS_P1;SDS_P2;PMS_P1;PMS_P2;Temp;Humidity;BMP_temperature;BMP_pressure;BME280_temperature;BME280_humidity;BME280_pressure;Samples;Min_cycle;Max_cycle;Signal;HPM_P1;HPM_P2
2021/08/08 00:01:00;;;;;;;2.83;2.53;;;20.30;70.70;;;;;;5055133;28;20049;-74
2021/08/08 00:03:26;;;;;;;5.88;3.00;;;20.30;70.80;;;;;;5054759;28;20108;-75
2021/08/08 00:05:52;;;;;;;3.90;2.67;;;20.30;70.90;;;;;;5054899;28;20036;-73
2021/08/08 00:08:19;;;;;;;2.80;2.60;;;20.20;70.80;;;;;;5054414;28;20029;-74
2021/08/08 00:10:46;;;;;;;2.85;2.65;;;20.30;70.90;;;;;;5055127;28;20053;-73
2021/08/08 00:13:13;;;;;;;2.63;2.42;;;20.20;71.00;;;;;;5054619;28;20021;-74
2021/08/08 00:15:39;;;;;;;3.08;2.88;;;20.20;71.20;;;;;;5054468;28;20392;-75
2021/08/08 00:18:06;;;;;;;4.95;2.80;;;20.10;71.40;;;;;;5053262;28;20035;-75
2021/08/08 00:20:33;;;;;;;3.28;2.80;;;20.10;71.10;;;;;;5054508;28;20029;-75
2021/08/08 00:22:59;;;;;;;4.05;2.75;;;20.10;71.10;;;;;;5054411;28;20028;-75
2021/08/08 00:25:25;;;;;;;3.50;2.83;;;20.10;71.10;;;;;;5054919;28;20033;-74
2021/08/08 00:27:51;;;;;;;3.78;2.90;;;20.10;71.30;;;;;;5054334;28;20384;-75
2021/08/08 00:30:17;;;;;;;3.70;2.65;;;20.10;71.40;;;;;;5054285;28;20382;-73
2021/08/08 00:32:43;;;;;;;2.97;2.50;;;20.00;71.60;;;;;;5053992;28;20025;-74
2021/08/08 00:35:10;;;;;;;2.83;2.63;;;20.00;71.80;;;;;;5054759;28;20076;-74
2021/08/08 00:37:37;;;;;;;3.75;2.45;;;20.00;71.70;;;;;;5054420;28;20052;-74
2021/08/08 00:40:04;;;;;;;2.85;2.45;;;20.00;71.80;;;;;;5054371;28;20021;-73
2021/08/08 00:42:30;;;;;;;2.67;2.47;;;20.00;71.90;;;;;;5054819;28;20052;-74
2021/08/08 00:44:55;;;;;;;4.05;2.85;;;20.00;71.90;;;;;;5053626;28;20065;-75
2021/08/08 00:47:21;;;;;;;2.67;2.47;;;20.00;71.90;;;;;;5053875;28;20033;-74
2021/08/08 00:49:47;;;;;;;3.53;2.45;;;19.90;72.00;;;;;;5054458;28;20078;-75
2021/08/08 00:52:13;;;;;;;2.85;2.65;;;19.90;71.90;;;;;;5053727;28;20076;-74
2021/08/08 00:54:39;;;;;;;3.10;2.50;;;19.90;72.20;;;;;;5053863;28;20032;-74
2021/08/08 00:57:04;;;;;;;3.60;2.42;;;19.90;72.10;;;;;;5054205;28;20071;-74
2021/08/08 00:59:31;;;;;;;4.20;2.80;;;19.90;72.00;;;;;;5053682;28;20025;-75
2021/08/08 01:01:56;;;;;;;5.20;2.70;;;19.90;72.10;;;;;;5053862;28;20064;-74
2021/08/08 01:04:34;;;;;;;2.75;2.45;;;19.90;72.20;;;;;;5052584;28;20068;-73
2021/08/08 01:07:05;;;;;;;2.80;2.45;;;19.90;72.50;;;;;;5053731;28;20058;-73
2021/08/08 01:09:35;;;;;;;4.75;2.70;;;19.90;72.50;;;;;;5053276;28;20036;-74
2021/08/08 01:12:01;;;;;;;3.08;2.78;;;19.90;72.50;;;;;;5053774;28;20029;-74
2021/08/08 01:14:29;;;;;;;3.13;2.72;;;19.90;72.50;;;;;;5053638;28;20059;-73
2021/08/08 01:16:56;;;;;;;16.90;3.63;;;19.90;72.70;;;;;;5053439;28;20112;-73
2021/08/08 01:19:26;;;;;;;5.60;3.40;;;19.80;72.80;;;;;;5053675;28;20036;-74
2021/08/08 01:21:52;;;;;;;3.10;2.72;;;19.80;73.00;;;;;;5053674;28;20536;-74
2021/08/08 01:24:18;;;;;;;3.20;2.88;;;19.80;72.90;;;;;;5053551;28;20029;-73
2021/08/08 01:26:46;;;;;;;2.80;2.60;;;19.80;72.90;;;;;;5053341;28;20045;-74
2021/08/08 01:29:12;;;;;;;2.83;2.55;;;19.80;72.80;;;;;;5052557;28;20029;-74
2021/08/08 01:31:37;;;;;;;3.78;2.72;;;19.80;73.00;;;;;;5053211;28;20376;-73
2021/08/08 01:34:03;;;;;;;2.55;2.40;;;19.80;73.20;;;;;;5053698;28;20430;-73
2021/08/08 01:36:29;;;;;;;3.80;2.78;;;19.80;73.10;;;;;;5053559;28;20033;-73
2021/08/08 01:39:02;;;;;;;3.28;2.50;;;19.80;73.00;;;;;;5053464;28;20423;-75
2021/08/08 01:41:36;;;;;;;2.70;2.50;;;19.80;72.90;;;;;;5053389;28;20468;-74
2021/08/08 01:44:03;;;;;;;2.88;2.67;;;19.80;72.90;;;;;;5054261;28;20076;-72
2021/08/08 01:46:32;;;;;;;4.07;2.67;;;19.80;73.00;;;;;;5054062;28;20033;-73
2021/08/08 01:48:59;;;;;;;3.85;2.80;;;19.70;72.90;;;;;;5053874;28;20025;-73
2021/08/08 01:51:26;;;;;;;2.85;2.55;;;19.70;73.10;;;;;;5053556;28;20032;-73
2021/08/08 01:53:52;;;;;;;3.03;2.60;;;19.70;73.00;;;;;;5053164;28;20049;-74
2021/08/08 01:56:18;;;;;;;2.88;2.60;;;19.70;73.30;;;;;;5053665;28;20029;-74
2021/08/08 01:58:44;;;;;;;2.80;2.60;;;19.70;73.30;;;;;;5053223;28;20107;-74
2021/08/08 02:01:10;;;;;;;3.03;2.70;;;19.70;73.40;;;;;;5053444;28;20155;-74
2021/08/08 02:03:38;;;;;;;3.20;2.58;;;19.70;73.70;;;;;;5053214;28;20021;-74
2021/08/08 02:06:05;;;;;;;4.18;2.85;;;19.70;73.90;;;;;;5051886;28;20116;-74
2021/08/08 02:08:31;;;;;;;2.88;2.60;;;19.70;73.80;;;;;;5051638;28;20036;-74
2021/08/08 02:10:57;;;;;;;3.53;2.90;;;19.70;73.70;;;;;;5051886;28;20025;-73
2021/08/08 02:13:23;;;;;;;2.65;2.50;;;19.70;73.80;;;;;;5053152;28;20048;-73
2021/08/08 02:15:49;;;;;;;2.83;2.63;;;19.70;73.70;;;;;;5051795;28;20055;-74
2021/08/08 02:18:16;;;;;;;3.10;2.80;;;19.60;73.70;;;;;;5053111;28;20028;-74
2021/08/08 02:20:42;;;;;;;3.88;2.80;;;19.60;73.70;;;;;;5052996;28;20029;-74
2021/08/08 02:23:08;;;;;;;3.05;2.85;;;19.70;73.70;;;;;;5053055;28;20028;-74
2021/08/08 02:25:34;;;;;;;5.07;3.00;;;19.60;73.70;;;;;;5053052;28;20036;-74
2021/08/08 02:27:59;;;;;;;2.92;2.70;;;19.60;73.80;;;;;;5053244;28;20025;-74
2021/08/08 02:30:25;;;;;;;3.72;2.80;;;19.60;74.00;;;;;;5055547;28;20028;-74
2021/08/08 02:32:51;;;;;;;4.03;3.00;;;19.60;74.00;;;;;;5056294;28;20353;-74
2021/08/08 02:35:17;;;;;;;2.90;2.70;;;19.60;74.10;;;;;;5057261;28;20116;-74
2021/08/08 02:37:43;;;;;;;3.88;2.65;;;19.50;74.00;;;;;;5056508;28;20108;-74
2021/08/08 02:40:09;;;;;;;3.55;3.05;;;19.50;74.10;;;;;;5055181;28;20025;-74
2021/08/08 02:42:35;;;;;;;2.90;2.70;;;19.50;74.20;;;;;;5055073;28;20055;-74
2021/08/08 02:45:00;;;;;;;3.30;3.00;;;19.50;74.40;;;;;;5056258;28;20384;-73
2021/08/08 02:47:30;;;;;;;6.50;3.15;;;19.50;74.50;;;;;;5057026;28;20031;-74
2021/08/08 02:49:57;;;;;;;3.97;2.72;;;19.50;74.40;;;;;;5056220;28;20079;-75
2021/08/08 02:52:24;;;;;;;3.50;2.80;;;19.50;74.60;;;;;;5056101;28;20128;-74
2021/08/08 02:54:50;;;;;;;3.20;2.90;;;19.50;74.80;;;;;;5056090;28;20502;-74
2021/08/08 02:57:15;;;;;;;3.63;2.78;;;19.50;75.10;;;;;;5056403;28;20057;-74
2021/08/08 02:59:41;;;;;;;3.65;3.30;;;19.50;74.90;;;;;;5056060;28;20031;-74
2021/08/08 03:02:07;;;;;;;3.30;3.00;;;19.50;75.00;;;;;;5056256;28;20064;-74
2021/08/08 03:04:33;;;;;;;4.25;3.17;;;19.40;74.90;;;;;;5056132;28;20040;-75
2021/08/08 03:06:59;;;;;;;3.58;3.15;;;19.50;75.10;;;;;;5054668;28;20488;-74
2021/08/08 03:09:24;;;;;;;3.40;3.10;;;19.40;75.10;;;;;;5054660;28;20447;-74
2021/08/08 03:11:50;;;;;;;3.53;3.13;;;19.40;75.20;;;;;;5055781;28;20025;-74
2021/08/08 03:14:17;;;;;;;3.40;3.10;;;19.50;75.30;;;;;;5056201;28;20033;-75
2021/08/08 03:16:44;;;;;;;3.45;2.95;;;19.50;75.20;;;;;;5054453;28;20427;-74
2021/08/08 03:19:11;;;;;;;2.83;2.63;;;19.50;75.30;;;;;;5055409;28;20029;-73
2021/08/08 03:21:37;;;;;;;3.97;3.25;;;19.50;75.20;;;;;;5055344;28;20025;-74
2021/08/08 03:24:03;;;;;;;4.93;3.10;;;19.60;75.20;;;;;;5056110;28;20052;-74
2021/08/08 03:26:30;;;;;;;3.92;3.28;;;19.60;75.10;;;;;;5055038;28;20572;-75
2021/08/08 03:28:56;;;;;;;3.35;3.05;;;19.60;75.10;;;;;;5054849;28;20021;-73
2021/08/08 03:31:22;;;;;;;5.38;3.55;;;19.60;75.00;;;;;;5054166;28;20372;-74
2021/08/08 03:33:47;;;;;;;4.32;3.13;;;19.70;74.90;;;;;;5055590;28;20028;-74
2021/08/08 03:36:13;;;;;;;3.78;3.30;;;19.70;74.70;;;;;;5055291;28;20492;-74
2021/08/08 03:38:40;;;;;;;3.45;3.15;;;19.60;74.70;;;;;;5055331;28;20037;-74
2021/08/08 03:41:05;;;;;;;2.83;2.60;;;19.70;74.90;;;;;;5054371;28;20034;-75
2021/08/08 03:43:31;;;;;;;4.72;3.10;;;19.70;74.90;;;;;;5055262;28;20033;-74
2021/08/08 03:45:57;;;;;;;4.22;2.88;;;19.70;74.90;;;;;;5054818;28;20056;-75
2021/08/08 03:48:23;;;;;;;3.50;3.10;;;19.80;74.80;;;;;;5055107;28;20452;-73
2021/08/08 03:50:49;;;;;;;3.63;3.33;;;19.80;74.70;;;;;;5053717;28;20434;-75
2021/08/08 03:53:14;;;;;;;3.95;3.25;;;19.80;74.90;;;;;;5053460;28;20049;-74
2021/08/08 03:55:40;;;;;;;4.05;3.17;;;19.90;74.90;;;;;;5054900;28;20059;-74
2021/08/08 03:58:06;;;;;;;5.97;3.53;;;19.90;74.80;;;;;;5054889;28;20024;-74
2021/08/08 04:00:32;;;;;;;3.53;3.15;;;20.00;74.70;;;;;;5055116;28;20411;-74
2021/08/08 04:02:57;;;;;;;4.18;3.40;;;20.00;74.40;;;;;;5053412;28;20121;-74
2021/08/08 04:05:23;;;;;;;4.63;3.25;;;20.00;74.30;;;;;;5055011;28;20036;-75
2021/08/08 04:07:49;;;;;;;4.80;3.80;;;20.00;74.50;;;;;;5054694;28;20083;-74
2021/08/08 04:10:15;;;;;;;4.10;3.67;;;20.00;74.30;;;;;;5052903;28;20035;-75
2021/08/08 04:12:41;;;;;;;4.57;3.40;;;20.10;74.10;;;;;;5054662;28;20056;-74
2021/08/08 04:15:07;;;;;;;3.80;3.30;;;20.00;73.80;;;;;;5054786;28;20069;-75
2021/08/08 04:17:33;;;;;;;5.03;3.83;;;20.10;74.00;;;;;;5053261;28;20399;-73
2021/08/08 04:19:59;;;;;;;6.03;3.60;;;20.10;74.00;;;;;;5054133;28;20036;-73
2021/08/08 04:22:25;;;;;;;5.20;3.78;;;20.10;73.90;;;;;;5054825;28;20032;-74
2021/08/08 04:24:50;;;;;;;6.85;3.50;;;20.10;73.90;;;;;;5054447;28;20520;-74
2021/08/08 04:27:16;;;;;;;3.97;3.58;;;20.20;74.00;;;;;;5053067;28;20036;-74
2021/08/08 04:29:42;;;;;;;4.22;3.78;;;20.30;73.90;;;;;;5054191;28;20025;-74
2021/08/08 04:32:08;;;;;;;4.13;3.20;;;20.30;73.70;;;;;;5054491;28;20025;-74
2021/08/08 04:34:34;;;;;;;4.07;3.38;;;20.30;73.40;;;;;;5054166;28;20068;-74
2021/08/08 04:37:01;;;;;;;3.28;2.95;;;20.40;73.30;;;;;;5053140;28;20456;-73
2021/08/08 04:39:27;;;;;;;5.00;3.50;;;20.40;73.20;;;;;;5052937;28;20121;-73
2021/08/08 04:41:53;;;;;;;4.50;3.85;;;20.50;73.00;;;;;;5054575;28;20049;-74
2021/08/08 04:44:20;;;;;;;4.32;3.35;;;20.50;72.90;;;;;;5053995;28;20055;-75
2021/08/08 04:46:46;;;;;;;4.00;3.50;;;20.60;72.70;;;;;;5053898;28;20028;-74
2021/08/08 04:49:11;;;;;;;8.52;3.47;;;20.60;72.60;;;;;;5053954;28;20025;-74
2021/08/08 04:51:37;;;;;;;4.15;3.30;;;20.70;72.50;;;;;;5053150;28;20025;-73
2021/08/08 04:54:03;;;;;;;4.63;3.20;;;20.80;72.40;;;;;;5053959;28;20077;-75
2021/08/08 04:56:28;;;;;;;4.10;3.17;;;20.80;72.00;;;;;;5053771;28;20029;-74
2021/08/08 04:58:54;;;;;;;3.42;3.15;;;20.90;71.80;;;;;;5053742;28;20021;-75
2021/08/08 05:01:20;;;;;;;4.03;3.25;;;20.90;71.60;;;;;;5053564;28;20025;-74
2021/08/08 05:03:46;;;;;;;4.03;3.20;;;21.00;71.60;;;;;;5053552;28;20025;-74
2021/08/08 05:06:11;;;;;;;3.63;3.25;;;21.00;71.40;;;;;;5054134;28;20029;-74
2021/08/08 05:08:37;;;;;;;3.75;3.20;;;21.10;71.30;;;;;;5053513;28;20400;-75
2021/08/08 05:11:03;;;;;;;4.40;3.35;;;21.10;71.10;;;;;;5053842;28;20021;-75
2021/08/08 05:13:29;;;;;;;5.60;3.72;;;21.10;70.90;;;;;;5053837;28;20107;-74
2021/08/08 05:15:56;;;;;;;6.00;3.20;;;21.10;70.60;;;;;;5053694;28;20457;-73
2021/08/08 05:18:21;;;;;;;4.55;3.33;;;21.10;70.40;;;;;;5053692;28;20067;-75
2021/08/08 05:20:47;;;;;;;4.40;3.60;;;21.10;70.40;;;;;;5052350;28;20049;-73
2021/08/08 05:23:13;;;;;;;5.25;3.65;;;21.10;70.40;;;;;;5053355;28;20021;-75
2021/08/08 05:25:39;;;;;;;4.47;3.50;;;21.10;70.40;;;;;;5054318;28;20125;-74
2021/08/08 05:28:04;;;;;;;3.50;3.17;;;21.20;70.20;;;;;;5052369;28;20024;-77
2021/08/08 05:30:30;;;;;;;4.47;3.45;;;21.20;70.80;;;;;;5053596;28;20025;-74
2021/08/08 05:32:59;;;;;;;3.70;3.20;;;21.20;70.10;;;;;;5052290;28;20115;-74
2021/08/08 05:35:24;;;;;;;3.88;3.50;;;21.30;70.10;;;;;;5053567;28;20091;-74
2021/08/08 05:37:50;;;;;;;5.05;3.78;;;21.30;69.80;;;;;;5053555;28;20422;-75
2021/08/08 05:40:16;;;;;;;5.97;3.72;;;21.30;69.90;;;;;;5053455;28;20029;-75
2021/08/08 05:42:47;;;;;;;3.67;3.20;;;21.30;69.90;;;;;;5053780;28;20388;-74
2021/08/08 05:45:13;;;;;;;4.30;3.63;;;21.40;70.50;;;;;;5053359;28;20040;-74
2021/08/08 05:47:39;;;;;;;3.78;3.30;;;21.50;69.80;;;;;;5053199;28;20025;-74
2021/08/08 05:50:04;;;;;;;3.85;3.47;;;21.50;69.70;;;;;;5053032;28;20033;-74
2021/08/08 05:52:30;;;;;;;4.13;3.58;;;21.60;69.50;;;;;;5051750;28;20053;-74
2021/08/08 05:54:56;;;;;;;4.85;3.20;;;21.70;69.30;;;;;;5052870;28;20037;-74
2021/08/08 05:57:21;;;;;;;4.00;3.60;;;21.70;69.20;;;;;;5069455;28;20033;-75
2021/08/08 05:59:47;;;;;;;3.72;3.30;;;21.70;69.10;;;;;;5052014;28;20025;-74
2021/08/08 06:02:14;;;;;;;5.45;3.88;;;21.80;69.10;;;;;;5053855;28;20029;-74
2021/08/08 06:04:49;;;;;;;3.70;3.40;;;21.90;69.00;;;;;;5058093;28;20111;-73
2021/08/08 06:07:18;;;;;;;5.50;3.42;;;22.00;68.90;;;;;;5059805;28;20025;-73
2021/08/08 06:09:44;;;;;;;5.57;3.85;;;22.00;68.80;;;;;;5059426;28;20025;-73
2021/08/08 06:12:15;;;;;;;4.47;3.83;;;22.10;68.80;;;;;;5059563;28;20408;-73
2021/08/08 06:14:43;;;;;;;3.95;3.65;;;22.20;68.70;;;;;;5059307;28;20354;-73
2021/08/08 06:17:12;;;;;;;3.83;3.10;;;22.20;68.40;;;;;;5059022;28;20142;-74
2021/08/08 06:19:42;;;;;;;3.92;3.53;;;22.30;68.40;;;;;;5058710;28;20044;-76
2021/08/08 06:22:08;;;;;;;3.90;3.47;;;22.30;68.10;;;;;;5057039;28;20104;-76
2021/08/08 06:24:34;;;;;;;4.00;3.70;;;22.40;68.00;;;;;;5057189;28;20504;-74
2021/08/08 06:26:59;;;;;;;3.80;3.50;;;22.50;67.90;;;;;;5056605;28;20032;-75
2021/08/08 06:29:25;;;;;;;4.10;3.55;;;22.50;67.80;;;;;;5056571;28;20025;-75
2021/08/08 06:31:51;;;;;;;3.90;3.60;;;22.50;67.70;;;;;;5056599;28;20025;-74
2021/08/08 06:34:16;;;;;;;3.53;3.03;;;22.60;67.90;;;;;;5056193;28;20440;-75
2021/08/08 06:36:42;;;;;;;8.70;3.65;;;22.60;67.70;;;;;;5056198;28;20028;-75
2021/08/08 06:39:08;;;;;;;3.40;3.10;;;22.70;67.60;;;;;;5056710;28;20027;-79
2021/08/08 06:41:34;;;;;;;4.43;3.00;;;22.70;67.40;;;;;;5056355;28;20368;-74
2021/08/08 06:44:00;;;;;;;6.05;3.55;;;22.80;67.40;;;;;;5056319;28;20032;-74
2021/08/08 06:46:26;;;;;;;3.72;3.38;;;22.80;67.50;;;;;;5056024;28;20035;-75
2021/08/08 06:48:52;;;;;;;3.30;3.00;;;22.90;67.30;;;;;;5056145;28;20107;-75
2021/08/08 06:51:18;;;;;;;3.88;3.35;;;23.00;67.10;;;;;;5056205;28;20032;-76
2021/08/08 06:53:43;;;;;;;4.22;2.95;;;23.10;66.50;;;;;;5055607;28;20048;-75
2021/08/08 06:56:09;;;;;;;3.20;3.00;;;23.10;66.00;;;;;;5055903;28;20067;-75
2021/08/08 06:58:35;;;;;;;3.33;2.90;;;23.20;65.80;;;;;;5055791;28;20448;-75
2021/08/08 07:01:00;;;;;;;3.72;3.20;;;23.30;65.70;;;;;;5056400;28;20028;-74
2021/08/08 07:03:26;;;;;;;2.88;2.67;;;23.30;65.40;;;;;;5056608;28;20403;-74
2021/08/08 07:05:52;;;;;;;3.45;3.15;;;23.40;65.30;;;;;;5055703;28;20032;-74
2021/08/08 07:08:28;;;;;;;3.40;3.13;;;23.40;65.00;;;;;;5055656;28;20464;-74
2021/08/08 07:10:56;;;;;;;4.53;2.90;;;23.50;64.80;;;;;;5055931;28;20028;-76
2021/08/08 07:13:22;;;;;;;3.10;2.80;;;23.50;64.80;;;;;;5055474;28;20052;-75
2021/08/08 07:15:50;;;;;;;6.43;3.10;;;23.60;64.90;;;;;;5054770;28;20029;-75
2021/08/08 07:19:07;;;;;;;3.20;2.88;;;23.70;64.70;;;;;;5054558;28;20029;-75
2021/08/08 07:21:45;;;;;;;3.72;3.05;;;23.70;64.10;;;;;;5055162;28;20139;-75
2021/08/08 07:24:11;;;;;;;3.03;2.83;;;23.80;63.90;;;;;;5055736;28;20033;-75
2021/08/08 07:26:37;;;;;;;3.15;2.85;;;23.80;63.90;;;;;;5053968;28;20500;-75
2021/08/08 07:29:04;;;;;;;2.97;2.78;;;23.90;64.00;;;;;;5055733;28;20456;-75
2021/08/08 07:31:30;;;;;;;3.30;3.00;;;23.90;63.80;;;;;;5053968;28;20029;-75
2021/08/08 07:33:56;;;;;;;3.15;2.85;;;24.00;63.50;;;;;;5053622;28;20377;-75
2021/08/08 07:36:28;;;;;;;3.13;2.63;;;24.00;63.30;;;;;;5055035;28;20044;-74
2021/08/08 07:39:03;;;;;;;2.88;2.65;;;24.00;63.10;;;;;;5055281;28;20522;-74
2021/08/08 07:41:30;;;;;;;3.20;2.90;;;24.10;62.90;;;;;;5053955;28;20025;-75
2021/08/08 07:43:56;;;;;;;4.00;2.88;;;24.20;63.00;;;;;;5054447;28;20080;-75
2021/08/08 07:46:21;;;;;;;4.15;2.83;;;24.30;62.90;;;;;;5055042;28;20025;-74
2021/08/08 07:48:47;;;;;;;3.17;2.67;;;24.30;62.60;;;;;;5053805;28;20071;-74
2021/08/08 07:51:14;;;;;;;2.58;2.38;;;24.50;62.50;;;;;;5055761;28;20102;-76
2021/08/08 07:53:42;;;;;;;3.30;2.80;;;24.50;62.40;;;;;;5056011;28;20061;-75
2021/08/08 07:56:09;;;;;;;3.20;2.72;;;24.70;62.00;;;;;;5053767;28;20029;-74
2021/08/08 07:58:35;;;;;;;2.67;2.47;;;24.90;61.70;;;;;;5053573;28;20025;-74
2021/08/08 08:01:02;;;;;;;2.90;2.70;;;25.00;61.20;;;;;;5054976;28;20040;-74
2021/08/08 08:03:31;;;;;;;3.13;2.70;;;25.10;60.50;;;;;;5053617;28;20536;-74
2021/08/08 08:05:57;;;;;;;3.00;2.63;;;25.20;60.20;;;;;;5054826;28;20029;-73
2021/08/08 08:08:23;;;;;;;6.10;2.90;;;25.30;59.60;;;;;;5054457;28;20079;-73
2021/08/08 08:10:49;;;;;;;3.03;2.72;;;25.40;59.40;;;;;;5054863;28;20372;-74
2021/08/08 08:13:15;;;;;;;3.10;2.80;;;25.50;59.20;;;;;;5054948;28;20063;-75
2021/08/08 08:15:42;;;;;;;3.35;2.50;;;25.70;58.80;;;;;;5054328;28;20029;-76
2021/08/08 08:18:08;;;;;;;3.65;2.50;;;25.80;58.50;;;;;;5054419;28;20028;-76
2021/08/08 08:20:33;;;;;;;4.47;2.60;;;26.00;58.20;;;;;;5053382;28;20021;-75
2021/08/08 08:23:00;;;;;;;2.97;2.65;;;26.10;57.80;;;;;;5054288;28;20098;-75
2021/08/08 08:25:27;;;;;;;2.78;2.58;;;26.20;57.60;;;;;;5054427;28;20031;-75
2021/08/08 08:27:53;;;;;;;2.50;2.30;;;26.40;57.50;;;;;;5054854;28;20056;-75
2021/08/08 08:30:19;;;;;;;3.22;2.25;;;26.60;56.90;;;;;;5053850;28;20037;-75
2021/08/08 08:32:45;;;;;;;2.40;2.20;;;26.80;56.40;;;;;;5052794;28;20028;-75
2021/08/08 08:35:11;;;;;;;2.45;2.25;;;27.00;56.10;;;;;;5053556;28;20445;-74
2021/08/08 08:37:38;;;;;;;3.05;2.30;;;27.10;55.60;;;;;;5052346;28;20036;-75
2021/08/08 08:40:06;;;;;;;2.97;2.00;;;27.30;55.30;;;;;;5054100;28;20048;-75
2021/08/08 08:42:35;;;;;;;2.42;2.20;;;27.40;54.90;;;;;;5053812;28;20538;-74
2021/08/08 08:45:01;;;;;;;2.80;2.42;;;27.50;54.60;;;;;;5052587;28;20025;-74
2021/08/08 08:47:29;;;;;;;2.20;2.10;;;27.70;54.40;;;;;;5054219;28;20096;-74
2021/08/08 08:50:00;;;;;;;2.05;1.95;;;27.90;54.00;;;;;;5054231;28;20024;-74
2021/08/08 08:52:28;;;;;;;4.00;2.22;;;28.00;53.50;;;;;;5053707;28;20170;-75
2021/08/08 08:54:55;;;;;;;2.90;2.17;;;28.20;53.20;;;;;;5054329;28;20033;-74
2021/08/08 08:57:22;;;;;;;2.67;2.47;;;28.40;53.00;;;;;;5053919;28;20029;-74
2021/08/08 08:59:50;;;;;;;2.35;2.15;;;28.60;52.50;;;;;;5054236;28;20041;-75
2021/08/08 09:02:16;;;;;;;2.67;2.45;;;28.80;52.40;;;;;;5054094;28;20071;-79
2021/08/08 09:04:42;;;;;;;2.35;2.17;;;29.10;52.20;;;;;;5053866;28;20067;-74
2021/08/08 09:07:08;;;;;;;3.75;2.38;;;29.30;51.80;;;;;;5053530;28;20061;-74
2021/08/08 09:09:36;;;;;;;3.03;1.95;;;29.40;51.40;;;;;;5053735;28;20055;-75
2021/08/08 09:12:02;;;;;;;1.88;1.75;;;29.70;51.30;;;;;;5053947;28;20091;-73
2021/08/08 09:14:28;;;;;;;2.40;2.20;;;30.00;51.00;;;;;;5053715;28;20496;-75
2021/08/08 09:16:55;;;;;;;2.63;2.08;;;30.20;50.70;;;;;;5053494;28;20029;-75
2021/08/08 09:19:27;;;;;;;2.45;1.88;;;30.40;50.10;;;;;;5053664;28;20214;-74
2021/08/08 09:21:53;;;;;;;2.25;2.15;;;30.70;49.70;;;;;;5053353;28;20047;-74
2021/08/08 09:24:34;;;;;;;3.25;2.00;;;30.90;49.10;;;;;;5052340;28;20105;-74
2021/08/08 09:27:06;;;;;;;1.80;1.70;;;31.10;48.60;;;;;;5052269;28;20115;-77
2021/08/08 09:29:33;;;;;;;2.00;1.90;;;31.40;48.50;;;;;;5053008;28;20024;-74
2021/08/08 09:31:59;;;;;;;2.13;1.60;;;31.80;48.50;;;;;;5053434;28;20032;-74
2021/08/08 09:34:34;;;;;;;1.90;1.80;;;32.00;47.90;;;;;;5068787;28;20472;-74
2021/08/08 09:37:04;;;;;;;1.90;1.80;;;32.30;47.30;;;;;;5054023;28;20021;-76
2021/08/08 09:39:42;;;;;;;1.88;1.77;;;32.50;47.30;;;;;;5056005;28;20037;-77
2021/08/08 09:42:14;;;;;;;3.00;2.00;;;32.70;47.00;;;;;;5057369;28;20025;-74
2021/08/08 09:45:05;;;;;;;1.73;1.63;;;33.00;46.80;;;;;;5057016;28;20068;-77
2021/08/08 09:47:44;;;;;;;2.60;1.80;;;33.30;46.30;;;;;;5057352;28;20048;-75
2021/08/08 09:50:18;;;;;;;1.50;1.40;;;33.50;45.90;;;;;;5057135;28;20063;-78
2021/08/08 09:52:53;;;;;;;3.50;1.83;;;33.60;45.50;;;;;;5057227;28;20431;-76
2021/08/08 09:55:28;;;;;;;2.65;1.60;;;33.70;45.40;;;;;;5057481;28;20488;-76
2021/08/08 09:57:54;;;;;;;2.28;2.05;;;33.80;45.30;;;;;;5057138;28;20027;-76
2021/08/08 10:00:36;;;;;;;1.75;1.58;;;34.00;45.30;;;;;;5057135;28;20040;-78
2021/08/08 10:03:04;;;;;;;1.70;1.60;;;34.30;44.80;;;;;;5055638;28;20047;-77
2021/08/08 10:05:34;;;;;;;3.15;2.00;;;34.40;44.70;;;;;;5057812;28;20429;-76
2021/08/08 10:08:07;;;;;;;2.28;2.08;;;34.70;44.60;;;;;;5056864;28;20041;-75
2021/08/08 10:10:34;;;;;;;;;;;34.90;43.90;;;;;;5056096;28;20056;-75
2021/08/08 10:13:28;;;;;;;2.88;1.83;;;35.00;44.40;;;;;;5057139;28;19908;-75
2021/08/08 10:15:56;;;;;;;1.58;1.48;;;35.20;43.70;;;;;;5057356;28;20037;-75
2021/08/08 10:18:29;;;;;;;4.40;1.60;;;35.40;43.50;;;;;;5057115;28;20032;-75
2021/08/08 10:20:54;;;;;;;4.00;1.60;;;35.40;43.50;;;;;;5055306;28;20472;-75
2021/08/08 10:23:21;;;;;;;1.42;1.33;;;35.40;43.10;;;;;;5056657;28;20108;-79
2021/08/08 10:25:49;;;;;;;5.55;1.55;;;35.50;43.00;;;;;;5056856;28;20036;-75
2021/08/08 10:28:16;;;;;;;5.40;1.40;;;35.70;43.00;;;;;;5056344;28;20021;-75
2021/08/08 10:30:45;;;;;;;1.70;1.60;;;35.80;42.90;;;;;;5056690;28;20082;-76
2021/08/08 10:33:12;;;;;;;3.30;1.55;;;36.20;42.90;;;;;;5056359;28;20053;-75
2021/08/08 10:35:40;;;;;;;1.98;1.67;;;36.40;42.60;;;;;;5056445;28;20076;-74
2021/08/08 10:38:06;;;;;;;2.20;1.42;;;36.60;42.30;;;;;;5056317;28;20354;-74
2021/08/08 10:40:33;;;;;;;5.65;1.52;;;36.90;42.20;;;;;;5056874;28;20036;-76
2021/08/08 10:43:00;;;;;;;2.08;1.55;;;37.20;41.90;;;;;;5056579;28;20021;-75
2021/08/08 10:45:32;;;;;;;1.25;1.25;;;37.40;41.50;;;;;;5056217;28;20037;-75
2021/08/08 10:48:00;;;;;;;1.40;1.30;;;37.40;41.60;;;;;;5055534;28;20029;-75
2021/08/08 10:50:36;;;;;;;1.00;1.00;;;37.50;41.80;;;;;;5054566;28;20517;-77
2021/08/08 10:53:03;;;;;;;1.52;1.00;;;37.90;41.30;;;;;;5055830;28;20115;-76
2021/08/08 10:55:30;;;;;;;2.10;0.93;;;38.10;41.10;;;;;;5056597;28;20444;-75
2021/08/08 10:57:56;;;;;;;1.38;1.27;;;38.50;40.80;;;;;;5056001;28;20036;-76
2021/08/08 11:00:33;;;;;;;4.63;1.23;;;38.60;40.40;;;;;;5054692;28;20074;-75
2021/08/08 11:03:15;;;;;;;3.83;1.25;;;38.70;39.90;;;;;;5056101;28;20255;-75
2021/08/08 11:05:41;;;;;;;1.30;1.20;;;39.00;39.90;;;;;;5054624;28;20036;-75
2021/08/08 11:08:11;;;;;;;1.10;1.08;;;39.10;39.70;;;;;;5056062;28;20024;-75
2021/08/08 11:10:40;;;;;;;1.08;1.00;;;39.30;39.70;;;;;;5055798;28;20465;-75
2021/08/08 11:13:35;;;;;;;2.95;1.50;;;39.60;39.60;;;;;;5055690;28;20472;-76
2021/08/08 11:16:13;;;;;;;1.00;1.00;;;39.80;39.30;;;;;;5045952;28;20372;-75
2021/08/08 11:18:38;;;;;;;1.38;1.10;;;40.10;38.90;;;;;;5055795;28;20053;-76
2021/08/08 11:21:12;;;;;;;1.35;1.20;;;40.30;38.90;;;;;;5055318;28;20067;-75
2021/08/08 11:23:37;;;;;;;2.97;1.10;;;40.60;39.10;;;;;;5055742;28;20051;-75
2021/08/08 11:26:03;;;;;;;3.15;1.15;;;40.80;38.50;;;;;;5055970;28;20064;-76
2021/08/08 11:28:31;;;;;;;1.30;1.20;;;41.00;38.10;;;;;;5056124;28;20048;-75
2021/08/08 11:30:57;;;;;;;1.33;1.30;;;41.40;38.10;;;;;;5055305;28;20021;-75
2021/08/08 11:33:26;;;;;;;2.05;1.30;;;41.60;38.40;;;;;;5055215;28;20029;-76
2021/08/08 11:35:59;;;;;;;3.50;1.35;;;41.90;37.50;;;;;;5055950;28;20384;-75
2021/08/08 11:38:27;;;;;;;1.98;1.77;;;42.20;37.20;;;;;;5057875;28;20175;-79
2021/08/08 11:40:52;;;;;;;2.10;1.65;;;42.40;36.80;;;;;;5055916;28;20032;-75
2021/08/08 11:43:18;;;;;;;2.45;1.50;;;42.60;36.90;;;;;;5056579;28;20033;-75
2021/08/08 11:45:49;;;;;;;3.35;1.60;;;42.70;36.80;;;;;;5055155;28;20040;-75
2021/08/08 11:48:20;;;;;;;1.60;1.50;;;43.00;36.30;;;;;;5054382;28;20025;-74
2021/08/08 11:50:57;;;;;;;3.97;1.50;;;43.30;36.30;;;;;;5055103;28;20032;-75
2021/08/08 11:53:32;;;;;;;2.22;1.65;;;43.60;36.10;;;;;;5054301;28;20388;-78
2021/08/08 11:56:13;;;;;;;1.63;1.52;;;44.00;35.90;;;;;;5055490;28;20043;-74
2021/08/08 11:58:47;;;;;;;1.67;1.58;;;44.30;35.60;;;;;;5054076;28;20037;-75
2021/08/08 12:01:16;;;;;;;1.52;1.42;;;44.50;35.30;;;;;;5054702;28;20392;-75
2021/08/08 12:03:42;;;;;;;2.00;1.25;;;44.60;35.10;;;;;;5055425;28;20025;-75
2021/08/08 12:06:08;;;;;;;2.92;1.55;;;44.70;34.90;;;;;;5054984;28;20432;-75
2021/08/08 12:08:33;;;;;;;3.70;1.50;;;44.80;34.80;;;;;;5055207;28;20064;-74
2021/08/08 12:11:11;;;;;;;2.63;1.50;;;45.00;34.70;;;;;;5055018;28;20434;-73
2021/08/08 12:13:50;;;;;;;7.47;1.80;;;45.20;34.50;;;;;;5055147;28;20349;-76
2021/08/08 12:16:18;;;;;;;3.40;1.77;;;45.20;34.30;;;;;;5054475;28;20055;-75
2021/08/08 12:18:45;;;;;;;2.72;2.05;;;45.30;34.20;;;;;;5054561;28;20036;-76
2021/08/08 12:21:17;;;;;;;2.53;1.70;;;45.30;33.90;;;;;;5055083;28;20021;-76
2021/08/08 12:23:43;;;;;;;2.38;1.80;;;45.40;33.80;;;;;;5054656;28;20052;-76
2021/08/08 12:26:10;;;;;;;1.98;1.88;;;45.50;33.70;;;;;;5054542;28;20081;-75
2021/08/08 12:28:36;;;;;;;2.47;2.10;;;45.60;33.60;;;;;;5054084;28;20442;-76
2021/08/08 12:31:10;;;;;;;2.33;1.88;;;45.80;33.80;;;;;;5054496;28;20067;-76
2021/08/08 12:33:37;;;;;;;3.08;1.80;;;45.90;33.70;;;;;;5054426;28;20487;-74
2021/08/08 12:36:11;;;;;;;4.57;1.80;;;46.00;33.70;;;;;;5054637;28;20415;-74
2021/08/08 12:38:51;;;;;;;2.30;1.90;;;46.20;33.40;;;;;;5053044;28;20451;-74
2021/08/08 12:41:28;;;;;;;3.80;1.30;;;46.40;33.30;;;;;;5052492;28;20102;-74
2021/08/08 12:44:00;;;;;;;2.95;1.42;;;46.50;33.10;;;;;;5053797;28;20431;-75
2021/08/08 12:46:34;;;;;;;;;;;46.60;33.10;;;;;;5052856;28;20067;-74
2021/08/08 12:49:04;;;;;;;2.25;1.40;;;46.60;33.70;;;;;;5054036;28;20011;-75
2021/08/08 12:51:31;;;;;;;2.33;1.48;;;46.80;33.20;;;;;;5053766;28;20028;-75